Terminal Aerodrome Forecast
Issued by NWS Memphis, TN

Home | Current Version | Previous Version | Text Only | Print | Product List | Glossary On
Versions: 1 2 3 4 5 6 7 8 9 10 11 12 13 14 15
630
FTUS44 KMEG 281720
TAFJBR
TAF
KJBR 281720Z 2818/2918 26008KT P6SM SKC
     FM290000 VRB03KT P6SM SKC
     FM291200 06006KT P6SM FEW030 BKN150
     FM291600 08006KT P6SM VCTS BKN050CB BKN120=

USA.gov is the U.S. government's official web portal to all federal, state and local government web resources and services.